createdAt,value
2022-11-18T00:00:03.454Z,100.00
2022-11-18T00:02:31.485Z,100.00
2022-11-18T00:04:59.474Z,100.00
2022-11-18T00:07:28.262Z,100.00
2022-11-18T00:09:56.422Z,100.00
2022-11-18T00:12:41.606Z,100.00
2022-11-18T00:15:11.195Z,100.00
2022-11-18T00:17:39.127Z,100.00
2022-11-18T00:20:07.912Z,100.00
2022-11-18T00:22:35.874Z,100.00
2022-11-18T00:25:03.900Z,100.00
2022-11-18T00:27:32.144Z,100.00
2022-11-18T00:30:00.089Z,100.00
2022-11-18T00:32:29.394Z,100.00
2022-11-18T00:34:57.338Z,100.00
2022-11-18T00:37:25.339Z,100.00
2022-11-18T00:39:53.250Z,100.00
2022-11-18T00:42:50.157Z,100.00
2022-11-18T00:45:18.231Z,100.00
2022-11-18T00:47:47.975Z,99.92
2022-11-18T00:50:16.065Z,99.67
2022-11-18T00:52:44.051Z,100.00
2022-11-18T00:55:12.000Z,100.00
2022-11-18T00:57:39.926Z,100.00
2022-11-18T01:00:09.493Z,100.00
2022-11-18T01:02:37.818Z,100.00
2022-11-18T01:05:07.685Z,100.00
2022-11-18T01:07:35.717Z,100.00
2022-11-18T01:10:03.705Z,100.00
2022-11-18T01:12:48.961Z,100.00
2022-11-18T01:15:19.509Z,100.00
2022-11-18T01:17:47.430Z,100.00
2022-11-18T01:20:17.257Z,100.00
2022-11-18T01:22:45.211Z,100.00
2022-11-18T01:25:13.368Z,100.00
2022-11-18T01:27:41.428Z,100.00
2022-11-18T01:30:10.397Z,100.00
2022-11-18T01:32:38.356Z,100.00
2022-11-18T01:35:07.052Z,100.00
2022-11-18T01:37:36.398Z,100.00
2022-11-18T01:40:05.500Z,100.00
2022-11-18T01:42:33.478Z,100.00
2022-11-18T01:45:10.014Z,100.00
2022-11-18T01:47:42.854Z,99.81
2022-11-18T01:50:11.884Z,99.74
2022-11-18T01:52:43.606Z,99.35
2022-11-18T01:55:17.899Z,99.86
2022-11-18T01:57:48.921Z,98.60
2022-11-18T02:00:17.325Z,98.78
2022-11-18T02:02:46.097Z,98.84
2022-11-18T02:05:14.767Z,98.71
2022-11-18T02:07:45.132Z,98.24
2022-11-18T02:10:20.313Z,98.64
2022-11-18T02:12:49.091Z,99.24
2022-11-18T02:15:17.698Z,100.00
2022-11-18T02:17:54.607Z,99.86
2022-11-18T02:20:32.370Z,99.79
2022-11-18T02:23:47.985Z,99.31
2022-11-18T02:26:36.390Z,99.59
2022-11-18T02:29:10.020Z,99.63
2022-11-18T02:31:47.701Z,99.54
2022-11-18T02:34:23.111Z,99.28
2022-11-18T02:36:56.516Z,99.57
2022-11-18T02:39:36.623Z,99.77
2022-11-18T02:42:07.939Z,98.67
2022-11-18T02:44:39.546Z,98.37
2022-11-18T02:47:12.042Z,97.35
2022-11-18T02:49:43.424Z,96.08
2022-11-18T02:52:13.490Z,97.02
2022-11-18T02:54:43.815Z,97.05
2022-11-18T02:57:13.069Z,98.34
2022-11-18T02:59:42.398Z,98.26
2022-11-18T03:02:16.313Z,98.50
2022-11-18T03:04:45.331Z,98.72
2022-11-18T03:07:19.481Z,99.74
2022-11-18T03:09:48.867Z,99.26
2022-11-18T03:12:25.791Z,99.60
2022-11-18T03:15:04.267Z,99.94
2022-11-18T03:17:40.302Z,99.87
2022-11-18T03:20:16.403Z,98.94
2022-11-18T03:22:49.396Z,99.41
2022-11-18T03:25:24.728Z,99.14
2022-11-18T03:27:58.717Z,99.70
2022-11-18T03:30:30.861Z,99.10
2022-11-18T03:33:03.942Z,100.00
2022-11-18T03:35:36.804Z,100.00
2022-11-18T03:38:10.092Z,100.00
2022-11-18T03:40:43.107Z,100.00
2022-11-18T03:43:14.506Z,100.00
2022-11-18T03:45:47.365Z,100.00
2022-11-18T03:48:17.801Z,100.00
2022-11-18T03:50:49.641Z,100.00
2022-11-18T03:53:20.037Z,100.00
2022-11-18T03:55:52.394Z,100.00
2022-11-18T03:58:26.005Z,100.00
2022-11-18T04:01:00.657Z,100.00
2022-11-18T04:03:28.941Z,100.00
2022-11-18T04:06:04.746Z,100.00
2022-11-18T04:08:40.509Z,100.00
2022-11-18T04:11:34.302Z,100.00
2022-11-18T04:14:02.945Z,100.00
2022-11-18T04:16:32.374Z,100.00
2022-11-18T04:19:05.729Z,100.00
2022-11-18T04:21:34.253Z,100.00
2022-11-18T04:24:02.673Z,100.00
2022-11-18T04:26:31.638Z,100.00
2022-11-18T04:28:59.853Z,100.00
2022-11-18T04:31:27.851Z,100.00
2022-11-18T04:33:57.152Z,100.00
2022-11-18T04:36:25.110Z,100.00
2022-11-18T04:38:53.969Z,100.00
2022-11-18T04:41:41.878Z,100.00
2022-11-18T04:44:13.396Z,100.00
2022-11-18T04:46:42.953Z,100.00
2022-11-18T04:49:13.956Z,100.00
2022-11-18T04:51:42.807Z,100.00
2022-11-18T04:54:11.363Z,100.00
2022-11-18T04:56:44.114Z,100.00
2022-11-18T04:59:16.784Z,100.00
2022-11-18T05:01:45.168Z,100.00
2022-11-18T05:04:16.138Z,100.00
2022-11-18T05:06:44.380Z,100.00
2022-11-18T05:09:12.757Z,100.00
2022-11-18T05:11:58.128Z,100.00
2022-11-18T05:14:26.863Z,100.00
2022-11-18T05:16:55.449Z,100.00
2022-11-18T05:19:24.993Z,100.00
2022-11-18T05:21:53.076Z,100.00
2022-11-18T05:24:21.314Z,99.11
2022-11-18T05:26:49.240Z,98.38
2022-11-18T05:29:19.378Z,99.14
2022-11-18T05:31:48.357Z,98.72
2022-11-18T05:34:16.813Z,99.64
2022-11-18T05:36:46.245Z,99.44
2022-11-18T05:39:14.363Z,98.96
2022-11-18T05:41:59.668Z,98.34
2022-11-18T05:44:27.638Z,98.16
2022-11-18T05:46:56.721Z,98.01
2022-11-18T05:49:24.850Z,98.18
2022-11-18T05:51:54.149Z,99.16
2022-11-18T05:54:22.960Z,99.56
2022-11-18T05:56:51.449Z,99.95
2022-11-18T05:59:19.619Z,100.00
2022-11-18T06:01:51.757Z,100.00
2022-11-18T06:04:27.019Z,100.00
2022-11-18T06:07:00.740Z,100.00
2022-11-18T06:09:33.540Z,100.00
2022-11-18T06:12:03.895Z,100.00
2022-11-18T06:14:38.102Z,100.00
2022-11-18T06:17:09.492Z,100.00
2022-11-18T06:19:37.558Z,100.00
2022-11-18T06:22:08.615Z,100.00
2022-11-18T06:24:37.253Z,100.00
2022-11-18T06:27:05.577Z,100.00
2022-11-18T06:29:33.494Z,100.00
2022-11-18T06:32:01.432Z,100.00
2022-11-18T06:34:29.363Z,100.00
2022-11-18T06:36:58.474Z,100.00
2022-11-18T06:39:28.211Z,100.00
2022-11-18T06:41:56.152Z,100.00
2022-11-18T06:44:23.091Z,100.00
2022-11-18T06:46:56.751Z,100.00
2022-11-18T06:49:25.099Z,100.00
2022-11-18T06:51:53.116Z,100.00
2022-11-18T06:54:21.554Z,100.00
2022-11-18T06:56:50.854Z,100.00
2022-11-18T06:59:23.953Z,99.78
2022-11-18T07:01:53.608Z,100.00
2022-11-18T07:04:22.056Z,98.35
2022-11-18T07:06:50.233Z,98.78
2022-11-18T07:09:18.638Z,97.11
2022-11-18T07:11:46.853Z,96.99
2022-11-18T07:14:16.155Z,97.39
2022-11-18T07:16:44.118Z,96.48
2022-11-18T07:19:13.670Z,96.33
2022-11-18T07:21:43.508Z,98.20
2022-11-18T07:24:15.247Z,97.77
2022-11-18T07:26:43.860Z,99.00
2022-11-18T07:29:12.428Z,98.40
2022-11-18T07:31:41.916Z,97.88
2022-11-18T07:34:09.899Z,98.92
2022-11-18T07:36:37.850Z,97.89
2022-11-18T07:39:07.921Z,97.71
2022-11-18T07:41:36.428Z,96.88
2022-11-18T07:44:06.564Z,97.05
2022-11-18T07:46:35.676Z,97.58
2022-11-18T07:49:07.109Z,96.66
2022-11-18T07:51:37.143Z,95.59
2022-11-18T07:54:08.229Z,95.13
2022-11-18T07:56:36.162Z,94.83
2022-11-18T07:59:04.733Z,95.21
2022-11-18T08:01:33.359Z,95.68
2022-11-18T08:04:08.214Z,94.63
2022-11-18T08:06:37.158Z,93.22
2022-11-18T08:09:06.101Z,93.35
2022-11-18T08:11:34.420Z,93.62
2022-11-18T08:14:02.649Z,94.06
2022-11-18T08:16:31.011Z,94.52
2022-11-18T08:19:00.994Z,93.33
2022-11-18T08:21:30.420Z,92.32
2022-11-18T08:23:59.476Z,92.88
2022-11-18T08:26:28.540Z,92.78
2022-11-18T08:28:56.650Z,92.18
2022-11-18T08:31:26.409Z,91.35
2022-11-18T08:33:57.067Z,90.75
2022-11-18T08:36:26.863Z,92.12
2022-11-18T08:38:56.661Z,92.56
2022-11-18T08:41:30.634Z,93.05
2022-11-18T08:43:59.012Z,91.98
2022-11-18T08:46:26.970Z,93.18
2022-11-18T08:48:54.903Z,92.05
2022-11-18T08:51:22.894Z,92.59
2022-11-18T08:53:50.941Z,92.33
2022-11-18T08:56:22.177Z,89.36
2022-11-18T08:58:50.501Z,88.67
2022-11-18T09:01:18.937Z,87.62
2022-11-18T09:03:48.535Z,87.96
2022-11-18T09:06:18.414Z,86.71
2022-11-18T09:08:46.856Z,88.41
2022-11-18T09:11:16.740Z,87.05
2022-11-18T09:16:35.697Z,85.83
2022-11-18T09:19:24.839Z,85.78
2022-11-18T09:21:53.178Z,86.06
2022-11-18T09:24:21.447Z,85.10
2022-11-18T09:26:50.038Z,85.07
2022-11-18T09:29:20.075Z,86.15
2022-11-18T09:31:47.991Z,86.56
2022-11-18T09:34:16.188Z,86.70
2022-11-18T09:36:44.344Z,86.38
2022-11-18T09:39:12.307Z,87.56
2022-11-18T09:41:46.252Z,87.93
2022-11-18T09:44:42.594Z,87.02
2022-11-18T09:47:21.839Z,84.20
2022-11-18T09:49:50.821Z,85.63
2022-11-18T09:52:22.122Z,85.51
2022-11-18T09:54:50.362Z,85.51
2022-11-18T09:57:21.417Z,86.46
2022-11-18T09:59:50.965Z,87.60
2022-11-18T10:02:35.430Z,87.04
2022-11-18T10:05:15.647Z,86.04
2022-11-18T10:07:50.823Z,86.43
2022-11-18T10:10:23.921Z,87.16
2022-11-18T10:12:57.303Z,86.53
2022-11-18T10:15:35.105Z,87.83
2022-11-18T10:18:38.024Z,88.22
2022-11-18T10:21:18.845Z,87.36
2022-11-18T10:23:53.777Z,87.43
2022-11-18T10:26:38.470Z,87.87
2022-11-18T10:29:10.056Z,88.95
2022-11-18T10:31:40.511Z,88.03
2022-11-18T10:34:12.156Z,87.93
2022-11-18T10:36:40.077Z,89.44
2022-11-18T10:39:14.322Z,88.93
2022-11-18T10:41:49.030Z,87.57
2022-11-18T10:44:35.245Z,88.83
2022-11-18T10:47:27.814Z,88.62
2022-11-18T10:49:57.317Z,88.40
2022-11-18T10:52:25.897Z,89.29
2022-11-18T10:55:09.897Z,89.00
2022-11-18T10:57:43.468Z,86.74
2022-11-18T11:00:43.476Z,88.22
2022-11-18T11:03:25.651Z,88.19
2022-11-18T11:06:31.741Z,89.12
2022-11-18T11:09:03.122Z,87.22
2022-11-18T11:11:33.131Z,86.82
2022-11-18T11:14:23.132Z,86.67
2022-11-18T11:17:03.606Z,88.50
2022-11-18T11:19:42.427Z,86.26
2022-11-18T11:22:13.012Z,86.16
2022-11-18T11:24:41.808Z,85.78
2022-11-18T11:30:22.085Z,86.75
2022-11-18T11:33:23.765Z,84.80
2022-11-18T11:36:07.073Z,84.96
2022-11-18T11:38:44.577Z,86.81
2022-11-18T11:41:21.718Z,88.07
2022-11-18T11:44:05.336Z,86.75
2022-11-18T11:46:43.633Z,84.79
2022-11-18T11:49:19.755Z,86.39
2022-11-18T11:51:55.739Z,85.89
2022-11-18T11:54:41.699Z,85.43
2022-11-18T11:57:24.547Z,85.45
2022-11-18T12:00:02.633Z,86.05
2022-11-18T12:02:51.450Z,86.43
2022-11-18T12:05:26.584Z,88.06
2022-11-18T12:07:59.276Z,87.96
2022-11-18T12:10:31.718Z,89.10
2022-11-18T12:13:21.143Z,88.18
2022-11-18T12:16:00.024Z,89.34
2022-11-18T12:18:35.521Z,88.54
2022-11-18T12:21:03.466Z,88.42
2022-11-18T12:23:33.826Z,88.75
2022-11-18T12:26:10.557Z,88.23
2022-11-18T12:28:41.373Z,89.75
2022-11-18T12:31:37.956Z,89.35
2022-11-18T12:34:32.440Z,89.94
2022-11-18T12:37:23.921Z,90.03
2022-11-18T12:40:01.007Z,89.22
2022-11-18T12:42:58.855Z,89.83
2022-11-18T12:45:50.652Z,90.06
2022-11-18T12:48:41.308Z,90.32
2022-11-18T12:51:42.601Z,90.07
2022-11-18T12:54:38.813Z,89.63
2022-11-18T12:57:18.757Z,89.58
2022-11-18T12:59:46.943Z,88.58
2022-11-18T13:02:25.125Z,87.67
2022-11-18T13:05:07.896Z,89.02
2022-11-18T13:07:59.780Z,88.47
2022-11-18T13:10:30.662Z,87.97
2022-11-18T13:13:00.813Z,87.51
2022-11-18T13:15:46.517Z,87.65
2022-11-18T13:18:17.165Z,88.87
2022-11-18T13:20:55.027Z,89.08
2022-11-18T13:23:46.454Z,89.39
2022-11-18T13:26:19.872Z,91.19
2022-11-18T13:29:03.510Z,90.86
2022-11-18T13:31:39.693Z,90.27
2022-11-18T13:34:17.825Z,89.53
2022-11-18T13:36:48.075Z,89.91
2022-11-18T13:39:23.184Z,89.97
2022-11-18T13:42:01.137Z,90.79
2022-11-18T13:44:32.705Z,91.00
2022-11-18T13:47:10.485Z,90.83
2022-11-18T13:49:53.637Z,88.96
2022-11-18T13:52:27.385Z,89.83
2022-11-18T13:54:57.385Z,89.66
2022-11-18T13:57:27.022Z,90.96
2022-11-18T13:59:56.955Z,90.11
2022-11-18T14:02:25.260Z,90.56
2022-11-18T14:04:57.097Z,90.12
2022-11-18T14:07:33.468Z,88.87
2022-11-18T14:10:03.543Z,88.16
2022-11-18T14:12:33.432Z,89.03
2022-11-18T14:15:17.181Z,88.30
2022-11-18T14:17:54.168Z,88.27
2022-11-18T14:20:22.674Z,87.72
2022-11-18T14:22:55.784Z,89.58
2022-11-18T14:25:28.226Z,88.77
2022-11-18T14:27:57.844Z,88.30
2022-11-18T14:30:37.647Z,89.29
2022-11-18T14:33:18.229Z,87.47
2022-11-18T14:35:51.024Z,87.39
2022-11-18T14:41:10.955Z,87.47
2022-11-18T14:43:39.126Z,86.73
2022-11-18T14:46:15.323Z,87.32
2022-11-18T14:48:43.696Z,87.60
2022-11-18T14:51:14.723Z,87.28
2022-11-18T14:53:42.690Z,88.05
2022-11-18T14:56:16.466Z,86.97
2022-11-18T14:58:44.383Z,86.67
2022-11-18T15:01:14.749Z,86.92
2022-11-18T15:03:42.786Z,87.54
2022-11-18T15:06:15.893Z,89.61
2022-11-18T15:08:44.165Z,90.76
2022-11-18T15:11:12.467Z,92.29
2022-11-18T15:13:40.781Z,93.36
2022-11-18T15:16:17.173Z,93.53
2022-11-18T15:18:46.769Z,93.17
2022-11-18T15:21:15.196Z,93.13
2022-11-18T15:23:43.773Z,92.86
2022-11-18T15:26:19.723Z,92.08
2022-11-18T15:28:48.196Z,93.20
2022-11-18T15:31:18.272Z,93.43
2022-11-18T15:33:46.952Z,93.37
2022-11-18T15:36:16.925Z,93.11
2022-11-18T15:38:45.222Z,93.27
2022-11-18T15:41:17.655Z,94.29
2022-11-18T15:43:46.202Z,94.50
2022-11-18T15:46:14.493Z,94.11
2022-11-18T15:48:43.930Z,94.17
2022-11-18T15:51:12.634Z,94.69
2022-11-18T15:53:40.933Z,94.09
2022-11-18T15:56:27.264Z,95.44
2022-11-18T15:58:57.400Z,94.74
2022-11-18T16:01:26.128Z,93.19
2022-11-18T16:03:55.842Z,95.45
2022-11-18T16:06:23.806Z,94.25
2022-11-18T16:08:57.506Z,94.57
2022-11-18T16:11:45.030Z,95.04
2022-11-18T16:14:14.784Z,95.25
2022-11-18T16:16:44.221Z,94.68
2022-11-18T16:19:15.788Z,94.94
2022-11-18T16:21:46.448Z,95.19
2022-11-18T16:24:17.360Z,95.19
2022-11-18T16:26:45.505Z,96.08
2022-11-18T16:29:15.965Z,98.18
2022-11-18T16:31:44.764Z,98.91
2022-11-18T16:34:17.340Z,99.37
2022-11-18T16:36:46.593Z,99.45
2022-11-18T16:39:16.602Z,98.91
2022-11-18T16:41:45.990Z,98.66
2022-11-18T16:44:15.732Z,97.19
2022-11-18T16:46:46.552Z,97.49
2022-11-18T16:49:18.039Z,97.06
2022-11-18T16:51:47.860Z,97.79
2022-11-18T16:54:19.320Z,97.91
2022-11-18T16:56:48.217Z,97.48
2022-11-18T16:59:18.042Z,100.00
2022-11-18T17:01:46.477Z,99.45
2022-11-18T17:04:15.931Z,98.21
2022-11-18T17:06:44.028Z,97.62
2022-11-18T17:09:15.523Z,96.91
2022-11-18T17:11:43.552Z,97.06
2022-11-18T17:14:12.438Z,96.97
2022-11-18T17:16:40.897Z,97.77
2022-11-18T17:19:17.336Z,98.69
2022-11-18T17:21:47.181Z,99.70
2022-11-18T17:24:16.978Z,100.00
2022-11-18T17:26:45.819Z,99.59
2022-11-18T17:29:14.628Z,100.00
2022-11-18T17:31:43.640Z,100.00
2022-11-18T17:34:13.105Z,100.00
2022-11-18T17:36:41.475Z,100.00
2022-11-18T17:39:12.516Z,100.00
2022-11-18T17:41:58.439Z,100.00
2022-11-18T17:44:26.493Z,100.00
2022-11-18T17:46:54.406Z,100.00
2022-11-18T17:49:22.505Z,100.00
2022-11-18T17:51:51.350Z,100.00
2022-11-18T17:54:21.536Z,100.00
2022-11-18T17:56:52.344Z,100.00
2022-11-18T17:59:20.964Z,100.00
2022-11-18T18:01:52.870Z,100.00
2022-11-18T18:04:23.939Z,100.00
2022-11-18T18:06:53.093Z,100.00
2022-11-18T18:09:29.920Z,100.00
2022-11-18T18:11:59.700Z,100.00
2022-11-18T18:14:26.641Z,100.00
2022-11-18T18:16:55.206Z,100.00
2022-11-18T18:19:24.737Z,100.00
2022-11-18T18:21:53.534Z,100.00
2022-11-18T18:24:23.398Z,100.00
2022-11-18T18:26:51.449Z,100.00
2022-11-18T18:29:19.370Z,100.00
2022-11-18T18:31:47.294Z,100.00
2022-11-18T18:34:15.248Z,100.00
2022-11-18T18:36:43.167Z,100.00
2022-11-18T18:39:11.155Z,100.00
2022-11-18T18:41:40.440Z,100.00
2022-11-18T18:44:10.428Z,100.00
2022-11-18T18:46:40.716Z,100.00
2022-11-18T18:49:10.560Z,100.00
2022-11-18T18:51:40.083Z,100.00
2022-11-18T18:54:11.060Z,100.00
2022-11-18T18:56:40.781Z,100.00
2022-11-18T18:59:09.469Z,100.00
2022-11-18T19:01:38.038Z,100.00
2022-11-18T19:04:08.463Z,100.00
2022-11-18T19:09:26.268Z,100.00
2022-11-18T19:12:13.770Z,100.00
2022-11-18T19:14:41.864Z,100.00
2022-11-18T19:17:11.626Z,100.00
2022-11-18T19:19:58.301Z,100.00
2022-11-18T19:22:26.291Z,100.00
2022-11-18T19:24:54.810Z,100.00
2022-11-18T19:27:24.388Z,100.00
2022-11-18T19:29:52.462Z,100.00
2022-11-18T19:32:20.387Z,100.00
2022-11-18T19:34:48.313Z,100.00
2022-11-18T19:37:16.261Z,100.00
2022-11-18T19:39:44.211Z,100.00
2022-11-18T19:42:12.135Z,100.00
2022-11-18T19:44:41.462Z,100.00
2022-11-18T19:47:09.393Z,100.00
2022-11-18T19:49:37.330Z,100.00
2022-11-18T19:52:05.305Z,100.00
2022-11-18T19:54:33.232Z,100.00
2022-11-18T19:57:03.900Z,100.00
2022-11-18T19:59:31.926Z,100.00
2022-11-18T20:02:01.345Z,100.00
2022-11-18T20:04:29.535Z,100.00
2022-11-18T20:06:58.015Z,100.00
2022-11-18T20:09:26.554Z,100.00
2022-11-18T20:11:55.605Z,100.00
2022-11-18T20:14:23.717Z,100.00
2022-11-18T20:16:52.713Z,100.00
2022-11-18T20:19:22.177Z,100.00
2022-11-18T20:21:50.409Z,100.00
2022-11-18T20:24:19.829Z,100.00
2022-11-18T20:26:48.760Z,100.00
2022-11-18T20:29:17.175Z,100.00
2022-11-18T20:31:45.731Z,100.00
2022-11-18T20:34:14.520Z,100.00
2022-11-18T20:36:44.587Z,100.00
2022-11-18T20:39:15.057Z,100.00
2022-11-18T20:41:43.383Z,100.00
2022-11-18T20:44:12.215Z,100.00
2022-11-18T20:46:40.119Z,100.00
2022-11-18T20:49:08.044Z,100.00
2022-11-18T20:51:35.959Z,100.00
2022-11-18T20:54:09.243Z,100.00
2022-11-18T20:56:37.244Z,100.00
2022-11-18T20:59:05.162Z,100.00
2022-11-18T21:01:34.042Z,100.00
2022-11-18T21:04:03.674Z,100.00
2022-11-18T21:06:33.382Z,100.00
2022-11-18T21:09:02.856Z,100.00
2022-11-18T21:11:34.981Z,100.00
2022-11-18T21:14:24.731Z,100.00
2022-11-18T21:16:55.286Z,100.00
2022-11-18T21:19:23.621Z,100.00
2022-11-18T21:21:52.704Z,100.00
2022-11-18T21:24:23.756Z,100.00
2022-11-18T21:26:54.883Z,100.00
2022-11-18T21:29:23.928Z,100.00
2022-11-18T21:31:52.254Z,100.00
2022-11-18T21:34:21.053Z,100.00
2022-11-18T21:36:54.358Z,100.00
2022-11-18T21:39:23.571Z,100.00
2022-11-18T21:41:56.806Z,100.00
2022-11-18T21:44:28.187Z,100.00
2022-11-18T21:46:56.925Z,100.00
2022-11-18T21:49:24.841Z,100.00
2022-11-18T21:51:52.742Z,100.00
2022-11-18T21:54:20.681Z,100.00
2022-11-18T21:56:48.622Z,100.00
2022-11-18T21:59:18.294Z,100.00
2022-11-18T22:01:46.522Z,100.00
2022-11-18T22:04:34.510Z,100.00
2022-11-18T22:07:02.770Z,100.00
2022-11-18T22:09:36.087Z,100.00
2022-11-18T22:12:05.025Z,100.00
2022-11-18T22:14:34.364Z,100.00
2022-11-18T22:17:02.356Z,100.00
2022-11-18T22:19:30.412Z,100.00
2022-11-18T22:21:58.329Z,100.00
2022-11-18T22:24:26.317Z,100.00
2022-11-18T22:26:54.218Z,100.00
2022-11-18T22:29:24.186Z,100.00
2022-11-18T22:31:54.122Z,100.00
2022-11-18T22:34:22.071Z,100.00
2022-11-18T22:36:50.029Z,100.00
2022-11-18T22:39:18.249Z,100.00
2022-11-18T22:42:03.674Z,100.00
2022-11-18T22:44:31.918Z,100.00
2022-11-18T22:47:01.252Z,100.00
2022-11-18T22:49:29.201Z,100.00
2022-11-18T22:51:57.182Z,100.00
2022-11-18T22:54:41.195Z,100.00
2022-11-18T22:57:09.444Z,100.00
2022-11-18T22:59:37.362Z,100.00
2022-11-18T23:02:06.895Z,100.00
2022-11-18T23:04:35.228Z,100.00
2022-11-18T23:07:03.379Z,100.00
2022-11-18T23:09:31.515Z,100.00
2022-11-18T23:12:16.744Z,100.00
2022-11-18T23:14:44.680Z,100.00
2022-11-18T23:17:13.988Z,100.00
2022-11-18T23:19:43.911Z,100.00
2022-11-18T23:22:12.336Z,100.00
2022-11-18T23:24:40.396Z,100.00
2022-11-18T23:27:08.576Z,100.00
2022-11-18T23:29:37.272Z,100.00
2022-11-18T23:32:05.764Z,100.00
2022-11-18T23:34:35.072Z,100.00
2022-11-18T23:37:03.030Z,100.00
2022-11-18T23:39:30.966Z,100.00
2022-11-18T23:41:59.083Z,100.00
2022-11-18T23:44:40.847Z,100.00
2022-11-18T23:47:08.781Z,100.00
2022-11-18T23:49:38.146Z,100.00
2022-11-18T23:52:06.650Z,100.00
2022-11-18T23:54:34.546Z,100.00
2022-11-18T23:57:04.552Z,100.00
2022-11-18T23:59:33.058Z,100.00
